createdAt,value
2018-05-16T00:00:35.479Z,4.97
2018-05-16T00:03:02.902Z,5.87
2018-05-16T00:05:31.122Z,5.25
2018-05-16T00:07:58.657Z,4.55
2018-05-16T00:10:26.134Z,5.32
2018-05-16T00:12:53.595Z,5.25
2018-05-16T00:15:21.074Z,5.15
2018-05-16T00:17:48.536Z,4.72
2018-05-16T00:20:16.048Z,4.82
2018-05-16T00:22:43.528Z,5.62
2018-05-16T00:25:11.006Z,5.55
2018-05-16T00:27:38.481Z,5.15
2018-05-16T00:30:05.963Z,5.15
2018-05-16T00:32:34.217Z,5.03
2018-05-16T00:35:01.689Z,5.43
2018-05-16T00:37:29.949Z,5.47
2018-05-16T00:39:57.424Z,5.53
2018-05-16T00:42:25.683Z,4.78
2018-05-16T00:44:53.154Z,5.20
2018-05-16T00:47:21.374Z,5.37
2018-05-16T00:49:48.879Z,4.95
2018-05-16T00:52:16.343Z,5.40
2018-05-16T00:54:44.574Z,4.85
2018-05-16T00:57:12.061Z,5.25
2018-05-16T00:59:39.534Z,5.03
2018-05-16T01:02:07.795Z,5.30
2018-05-16T01:04:35.275Z,5.85
2018-05-16T01:07:03.493Z,5.20
2018-05-16T01:09:30.977Z,5.10
2018-05-16T01:11:58.450Z,5.45
2018-05-16T01:14:26.717Z,4.82
2018-05-16T01:16:54.174Z,5.25
2018-05-16T01:19:21.656Z,5.03
2018-05-16T01:21:49.899Z,5.93
2018-05-16T01:24:17.362Z,5.30
2018-05-16T01:26:44.866Z,5.32
2018-05-16T01:29:12.353Z,4.80
2018-05-16T01:31:40.615Z,5.25
2018-05-16T01:34:08.094Z,5.87
2018-05-16T01:36:35.572Z,5.12
2018-05-16T01:39:03.038Z,4.87
2018-05-16T01:41:31.282Z,4.80
2018-05-16T01:43:58.753Z,4.87
2018-05-16T01:46:26.317Z,5.37
2018-05-16T01:49:05.681Z,6.62
2018-05-16T01:51:33.159Z,6.10
2018-05-16T01:54:00.651Z,5.82
2018-05-16T01:56:28.110Z,5.43
2018-05-16T01:58:55.577Z,5.93
2018-05-16T02:01:23.058Z,5.20
2018-05-16T02:03:51.274Z,5.00
2018-05-16T02:06:18.785Z,5.97
2018-05-16T02:08:47.030Z,5.30
2018-05-16T02:11:14.489Z,5.32
2018-05-16T02:13:41.957Z,5.20
2018-05-16T02:16:09.446Z,5.53
2018-05-16T02:18:37.675Z,5.47
2018-05-16T02:21:05.156Z,5.53
2018-05-16T02:23:32.639Z,5.93
2018-05-16T02:26:00.863Z,5.78
2018-05-16T02:28:28.338Z,5.75
2018-05-16T02:30:55.810Z,6.00
2018-05-16T02:33:23.291Z,6.00
2018-05-16T02:35:50.790Z,6.37
2018-05-16T02:38:18.275Z,5.35
2018-05-16T02:40:45.739Z,6.18
2018-05-16T02:43:13.980Z,5.85
2018-05-16T02:45:41.460Z,6.05
2018-05-16T02:48:08.948Z,5.90
2018-05-16T02:50:37.198Z,5.95
2018-05-16T02:53:04.686Z,6.70
2018-05-16T02:55:32.153Z,5.97
2018-05-16T02:57:59.654Z,6.62
2018-05-16T03:00:27.139Z,5.70
2018-05-16T03:02:55.407Z,5.90
2018-05-16T03:05:23.625Z,6.00
2018-05-16T03:07:51.171Z,5.93
2018-05-16T03:10:18.646Z,5.78
2018-05-16T03:12:46.110Z,5.40
2018-05-16T03:15:13.601Z,5.60
2018-05-16T03:17:41.054Z,5.80
2018-05-16T03:20:08.523Z,6.05
2018-05-16T03:22:35.987Z,6.97
2018-05-16T03:25:04.228Z,6.10
2018-05-16T03:27:31.707Z,6.65
2018-05-16T03:29:59.212Z,6.85
2018-05-16T03:32:26.697Z,6.70
2018-05-16T03:34:54.178Z,6.62
2018-05-16T03:37:21.646Z,6.15
2018-05-16T03:39:49.103Z,7.00
2018-05-16T03:42:17.353Z,7.10
2018-05-16T03:44:44.822Z,6.85
2018-05-16T03:47:12.313Z,6.53
2018-05-16T03:49:40.536Z,6.57
2018-05-16T03:52:08.015Z,6.85
2018-05-16T03:54:35.510Z,6.70
2018-05-16T03:57:03.025Z,6.75
2018-05-16T03:59:42.427Z,6.62
2018-05-16T04:02:21.949Z,6.70
2018-05-16T04:04:49.338Z,6.72
2018-05-16T04:07:16.842Z,6.72
2018-05-16T04:09:45.122Z,6.68
2018-05-16T04:12:13.356Z,6.85
2018-05-16T04:14:40.870Z,7.57
2018-05-16T04:17:08.343Z,6.53
2018-05-16T04:19:35.888Z,6.62
2018-05-16T04:22:03.308Z,6.68
2018-05-16T04:24:30.782Z,7.05
2018-05-16T04:26:59.021Z,6.90
2018-05-16T04:29:26.507Z,6.82
2018-05-16T04:31:54.751Z,7.28
2018-05-16T04:34:22.254Z,6.70
2018-05-16T04:36:50.494Z,7.50
2018-05-16T04:39:17.998Z,6.32
2018-05-16T04:41:45.477Z,6.50
2018-05-16T04:44:12.956Z,6.55
2018-05-16T04:46:40.438Z,6.68
2018-05-16T04:49:07.909Z,6.30
2018-05-16T04:51:36.162Z,6.05
2018-05-16T04:54:03.637Z,6.35
2018-05-16T04:56:31.858Z,6.30
2018-05-16T04:58:59.356Z,6.28
2018-05-16T05:01:26.846Z,6.57
2018-05-16T05:03:54.313Z,6.10
2018-05-16T05:06:21.780Z,6.80
2018-05-16T05:08:49.306Z,6.43
2018-05-16T05:11:16.785Z,6.78
2018-05-16T05:13:44.294Z,6.30
2018-05-16T05:16:11.774Z,5.60
2018-05-16T05:18:40.187Z,5.82
2018-05-16T05:21:07.663Z,6.70
2018-05-16T05:23:35.142Z,6.30
2018-05-16T05:26:03.440Z,6.05
2018-05-16T05:28:31.660Z,6.35
2018-05-16T05:30:59.122Z,6.10
2018-05-16T05:33:26.626Z,6.43
2018-05-16T05:35:54.870Z,6.10
2018-05-16T05:38:22.359Z,6.55
2018-05-16T05:40:50.600Z,6.37
2018-05-16T05:43:18.082Z,6.07
2018-05-16T05:45:45.806Z,5.72
2018-05-16T05:48:13.285Z,5.72
2018-05-16T05:50:40.756Z,6.07
2018-05-16T05:53:08.243Z,5.80
2018-05-16T05:55:36.469Z,6.65
2018-05-16T05:58:03.962Z,5.47
2018-05-16T06:00:32.214Z,5.60
2018-05-16T06:02:59.717Z,6.78
2018-05-16T06:05:27.264Z,6.57
2018-05-16T06:07:54.714Z,7.28
2018-05-16T06:10:22.958Z,6.97
2018-05-16T06:12:50.521Z,7.20
2018-05-16T06:15:18.691Z,6.90
2018-05-16T06:17:46.181Z,7.10
2018-05-16T06:20:14.444Z,7.30
2018-05-16T06:22:43.010Z,8.35
2018-05-16T06:25:10.615Z,8.25
2018-05-16T06:27:38.114Z,8.30
2018-05-16T06:30:05.606Z,8.10
2018-05-16T06:32:33.856Z,8.73
2018-05-16T06:35:01.320Z,9.10
2018-05-16T06:37:28.810Z,9.35
2018-05-16T06:39:56.309Z,9.85
2018-05-16T06:42:23.782Z,9.60
2018-05-16T06:44:51.269Z,9.35
2018-05-16T06:47:19.509Z,9.13
2018-05-16T06:49:46.992Z,9.73
2018-05-16T06:52:14.453Z,9.35
2018-05-16T06:54:42.715Z,10.02
2018-05-16T06:57:10.190Z,10.15
2018-05-16T06:59:38.423Z,9.65
2018-05-16T07:02:05.909Z,9.70
2018-05-16T07:04:33.371Z,9.77
2018-05-16T07:07:00.838Z,9.57
2018-05-16T07:09:29.085Z,9.30
2018-05-16T07:11:56.595Z,10.45
2018-05-16T07:14:24.843Z,9.85
2018-05-16T07:16:53.125Z,11.25
2018-05-16T07:19:21.430Z,9.95
2018-05-16T07:21:48.901Z,10.57
2018-05-16T07:24:16.394Z,10.80
2018-05-16T07:26:43.881Z,11.48
2018-05-16T07:29:12.170Z,10.32
2018-05-16T07:31:39.634Z,10.63
2018-05-16T07:34:07.103Z,9.90
2018-05-16T07:36:34.591Z,10.55
2018-05-16T07:39:02.074Z,10.40
2018-05-16T07:41:30.377Z,10.05
2018-05-16T07:43:57.801Z,10.82
2018-05-16T07:46:25.286Z,10.75
2018-05-16T07:48:53.529Z,11.18
2018-05-16T07:51:21.071Z,11.68
2018-05-16T07:53:48.498Z,11.50
2018-05-16T07:56:15.986Z,11.05
2018-05-16T07:58:43.461Z,11.80
2018-05-16T08:01:10.954Z,11.48
2018-05-16T08:03:38.431Z,12.57
2018-05-16T08:06:05.934Z,11.43
2018-05-16T08:08:33.421Z,11.95
2018-05-16T08:11:00.912Z,12.20
2018-05-16T08:13:28.390Z,12.10
2018-05-16T08:15:55.870Z,12.50
2018-05-16T08:18:24.185Z,11.93
2018-05-16T08:20:51.685Z,13.35
2018-05-16T08:23:19.175Z,13.50
2018-05-16T08:25:47.455Z,13.00
2018-05-16T08:28:16.269Z,12.65
2018-05-16T08:30:43.751Z,13.25
2018-05-16T08:33:11.230Z,13.65
2018-05-16T08:35:38.697Z,14.77
2018-05-16T08:38:06.948Z,15.02
2018-05-16T08:40:34.416Z,14.23
2018-05-16T08:43:01.988Z,15.80
2018-05-16T08:45:30.147Z,15.27
2018-05-16T08:47:57.621Z,15.82
2018-05-16T08:50:25.874Z,15.43
2018-05-16T08:52:53.373Z,15.10
2018-05-16T08:55:21.648Z,14.75
2018-05-16T08:57:49.891Z,13.93
2018-05-16T09:00:17.400Z,13.45
2018-05-16T09:02:44.883Z,13.77
2018-05-16T09:05:12.379Z,13.27
2018-05-16T09:07:39.865Z,12.65
2018-05-16T09:10:07.390Z,11.82
2018-05-16T09:12:34.860Z,9.57
2018-05-16T09:15:03.117Z,11.23
2018-05-16T09:17:30.602Z,10.98
2018-05-16T09:19:58.853Z,10.52
2018-05-16T09:22:27.126Z,11.88
2018-05-16T09:24:54.705Z,10.98
2018-05-16T09:27:22.961Z,11.12
2018-05-16T09:29:50.439Z,11.43
2018-05-16T09:32:18.734Z,9.77
2018-05-16T09:34:46.199Z,10.63
2018-05-16T09:37:13.662Z,10.70
2018-05-16T09:39:41.144Z,9.73
2018-05-16T09:42:08.621Z,10.27
2018-05-16T09:44:36.090Z,9.63
2018-05-16T09:47:04.360Z,10.50
2018-05-16T09:49:31.839Z,10.30
2018-05-16T09:52:00.088Z,9.77
2018-05-16T09:54:27.574Z,10.18
2018-05-16T09:56:55.155Z,10.45
2018-05-16T09:59:22.619Z,10.73
2018-05-16T10:01:50.090Z,10.23
2018-05-16T10:04:18.415Z,9.38
2018-05-16T10:06:46.666Z,10.00
2018-05-16T10:09:14.179Z,10.90
2018-05-16T10:11:41.637Z,9.57
2018-05-16T10:14:09.106Z,9.45
2018-05-16T10:16:36.594Z,9.27
2018-05-16T10:19:04.077Z,8.80
2018-05-16T10:21:32.348Z,10.02
2018-05-16T10:24:00.573Z,9.80
2018-05-16T10:26:28.045Z,10.05
2018-05-16T10:28:55.542Z,9.27
2018-05-16T10:31:23.767Z,8.82
2018-05-16T10:33:51.245Z,8.73
2018-05-16T10:36:18.698Z,8.93
2018-05-16T10:38:46.180Z,8.07
2018-05-16T10:41:13.634Z,8.30
2018-05-16T10:43:41.121Z,8.55
2018-05-16T10:46:08.589Z,7.65
2018-05-16T10:48:36.078Z,8.55
2018-05-16T10:51:03.549Z,9.00
2018-05-16T10:53:31.027Z,7.97
2018-05-16T10:55:59.614Z,8.18
2018-05-16T10:58:26.753Z,8.63
2018-05-16T11:03:28.184Z,8.45
2018-05-16T11:05:55.583Z,7.65
2018-05-16T11:08:23.042Z,7.10
2018-05-16T11:10:51.281Z,6.87
2018-05-16T11:13:18.766Z,5.82
2018-05-16T11:15:46.246Z,6.07
2018-05-16T11:18:13.816Z,5.57
2018-05-16T11:20:41.268Z,5.75
2018-05-16T11:23:08.755Z,6.30
2018-05-16T11:25:36.235Z,5.75
2018-05-16T11:28:03.709Z,5.78
2018-05-16T11:30:31.193Z,5.78
2018-05-16T11:32:59.448Z,5.05
2018-05-16T11:35:27.699Z,5.60
2018-05-16T11:37:55.186Z,5.32
2018-05-16T11:40:23.443Z,5.28
2018-05-16T11:42:50.927Z,5.55
2018-05-16T11:45:19.198Z,5.65
2018-05-16T11:47:47.446Z,5.12
2018-05-16T11:50:14.937Z,4.90
2018-05-16T11:52:43.174Z,5.25
2018-05-16T11:55:10.634Z,5.90
2018-05-16T11:57:38.127Z,5.93
2018-05-16T12:00:06.378Z,5.47
2018-05-16T12:02:33.898Z,5.70
2018-05-16T12:05:01.372Z,4.72
2018-05-16T12:07:28.849Z,4.78
2018-05-16T12:09:56.342Z,5.55
2018-05-16T12:12:23.832Z,5.05
2018-05-16T12:14:51.418Z,5.85
2018-05-16T12:17:18.785Z,5.82
2018-05-16T12:19:46.257Z,6.00
2018-05-16T12:22:14.495Z,6.25
2018-05-16T12:24:41.957Z,5.70
2018-05-16T12:27:09.426Z,6.80
2018-05-16T12:29:36.898Z,6.75
2018-05-16T12:32:05.146Z,6.37
2018-05-16T12:34:32.622Z,6.55
2018-05-16T12:37:00.142Z,7.28
2018-05-16T12:39:27.626Z,6.70
2018-05-16T12:41:55.095Z,7.05
2018-05-16T12:44:22.583Z,7.62
2018-05-16T12:46:50.069Z,7.55
2018-05-16T12:49:17.574Z,8.15
2018-05-16T12:51:45.035Z,8.10
2018-05-16T12:54:13.270Z,8.85
2018-05-16T12:56:40.746Z,9.20
2018-05-16T12:59:08.222Z,8.63
2018-05-16T13:01:36.566Z,10.00
2018-05-16T13:04:04.007Z,9.48
2018-05-16T13:06:31.500Z,9.38
2018-05-16T13:08:59.005Z,10.50
2018-05-16T13:11:26.482Z,8.25
2018-05-16T13:13:53.960Z,10.00
2018-05-16T13:16:21.443Z,10.45
2018-05-16T13:18:49.697Z,9.82
2018-05-16T13:21:17.183Z,11.55
2018-05-16T13:23:45.421Z,10.10
2018-05-16T13:26:12.912Z,11.85
2018-05-16T13:28:41.154Z,11.50
2018-05-16T13:31:08.667Z,12.63
2018-05-16T13:33:36.162Z,11.18
2018-05-16T13:36:03.654Z,11.93
2018-05-16T13:38:31.913Z,12.45
2018-05-16T13:40:59.384Z,12.63
2018-05-16T13:43:26.887Z,12.65
2018-05-16T13:45:54.371Z,12.82
2018-05-16T13:48:21.892Z,12.55
2018-05-16T13:50:49.383Z,12.57
2018-05-16T13:53:16.850Z,12.52
2018-05-16T13:55:44.409Z,11.35
2018-05-16T13:58:11.893Z,12.52
2018-05-16T14:00:39.397Z,11.95
2018-05-16T14:03:06.908Z,11.55
2018-05-16T14:05:34.380Z,12.13
2018-05-16T14:08:02.634Z,13.90
2018-05-16T14:10:30.121Z,12.10
2018-05-16T14:12:57.592Z,13.75
2018-05-16T14:15:25.183Z,12.25
2018-05-16T14:17:52.595Z,11.55
2018-05-16T14:20:20.096Z,12.27
2018-05-16T14:22:47.599Z,12.10
2018-05-16T14:25:15.120Z,11.50
2018-05-16T14:27:43.366Z,11.77
2018-05-16T14:30:10.915Z,13.13
2018-05-16T14:32:39.119Z,10.90
2018-05-16T14:35:07.362Z,11.25
2018-05-16T14:37:34.855Z,9.93
2018-05-16T14:40:02.385Z,8.50
2018-05-16T14:42:29.871Z,7.95
2018-05-16T14:44:57.348Z,7.62
2018-05-16T14:47:24.829Z,7.07
2018-05-16T14:49:52.348Z,6.80
2018-05-16T14:52:19.850Z,6.40
2018-05-16T14:54:48.095Z,6.20
2018-05-16T14:57:15.626Z,6.68
2018-05-16T14:59:43.102Z,6.03
2018-05-16T15:02:10.570Z,6.47
2018-05-16T15:04:38.032Z,5.65
2018-05-16T15:07:05.510Z,5.95
2018-05-16T15:09:33.776Z,6.12
2018-05-16T15:12:02.020Z,6.35
2018-05-16T15:14:29.540Z,6.70
2018-05-16T15:16:57.014Z,6.82
2018-05-16T15:19:24.495Z,6.35
2018-05-16T15:21:51.989Z,6.78
2018-05-16T15:24:20.229Z,6.30
2018-05-16T15:26:47.787Z,7.07
2018-05-16T15:29:15.997Z,6.47
2018-05-16T15:31:44.236Z,6.75
2018-05-16T15:34:12.484Z,6.45
2018-05-16T15:36:39.958Z,6.75
2018-05-16T15:39:08.193Z,6.62
2018-05-16T15:41:35.658Z,6.68
2018-05-16T15:44:03.139Z,6.15
2018-05-16T15:46:30.611Z,3.67
2018-05-16T15:48:58.108Z,3.58
2018-05-16T15:51:26.335Z,2.72
2018-05-16T15:53:53.801Z,3.42
2018-05-16T15:56:21.281Z,3.28
2018-05-16T15:58:48.763Z,3.12
2018-05-16T16:01:16.988Z,3.42
2018-05-16T16:03:44.518Z,3.50
2018-05-16T16:06:11.978Z,3.62
2018-05-16T16:08:39.447Z,3.50
2018-05-16T16:11:06.925Z,3.70
2018-05-16T16:13:34.421Z,4.12
2018-05-16T16:16:02.695Z,3.35
2018-05-16T16:18:30.926Z,4.62
2018-05-16T16:20:58.418Z,3.85
2018-05-16T16:23:26.654Z,4.03
2018-05-16T16:25:54.940Z,4.78
2018-05-16T16:28:22.393Z,3.97
2018-05-16T16:30:49.862Z,4.32
2018-05-16T16:33:17.331Z,4.25
2018-05-16T16:35:44.872Z,4.70
2018-05-16T16:38:12.354Z,5.30
2018-05-16T16:40:40.591Z,4.43
2018-05-16T16:43:08.193Z,12.45
2018-05-16T16:45:36.446Z,10.07
2018-05-16T16:48:05.117Z,7.25
2018-05-16T16:50:32.610Z,8.65
2018-05-16T16:53:00.853Z,8.10
2018-05-16T16:55:28.379Z,8.93
2018-05-16T16:57:55.857Z,8.82
2018-05-16T17:00:23.743Z,9.70
2018-05-16T17:02:51.238Z,8.57
2018-05-16T17:05:19.514Z,8.73
2018-05-16T17:07:47.797Z,8.82
2018-05-16T17:10:15.297Z,8.60
2018-05-16T17:12:42.834Z,7.90
2018-05-16T17:15:10.378Z,7.82
2018-05-16T17:17:37.860Z,6.57
2018-05-16T17:20:05.357Z,6.43
2018-05-16T17:22:32.886Z,7.32
2018-05-16T17:25:00.374Z,5.70
2018-05-16T17:27:27.882Z,5.40
2018-05-16T17:29:55.338Z,6.15
2018-05-16T17:32:22.813Z,5.78
2018-05-16T17:34:50.285Z,5.03
2018-05-16T17:37:17.772Z,5.05
2018-05-16T17:39:45.270Z,4.62
2018-05-16T17:42:12.768Z,4.70
2018-05-16T17:44:40.264Z,5.05
2018-05-16T17:47:07.727Z,4.35
2018-05-16T17:49:35.227Z,5.40
2018-05-16T17:52:02.703Z,5.05
2018-05-16T17:54:30.180Z,4.95
2018-05-16T17:56:58.404Z,4.40
2018-05-16T17:59:26.647Z,5.25
2018-05-16T18:01:54.140Z,5.12
2018-05-16T18:04:21.605Z,5.95
2018-05-16T18:06:49.096Z,5.87
2018-05-16T18:09:17.363Z,5.37
2018-05-16T18:11:44.845Z,4.82
2018-05-16T18:14:24.058Z,6.40
2018-05-16T18:17:04.315Z,5.85
2018-05-16T18:19:31.778Z,5.00
2018-05-16T18:22:00.035Z,5.32
2018-05-16T18:24:27.527Z,5.10
2018-05-16T18:26:55.774Z,6.05
2018-05-16T18:29:23.274Z,4.70
2018-05-16T18:31:50.754Z,4.90
2018-05-16T18:34:18.254Z,4.75
2018-05-16T18:36:45.751Z,5.47
2018-05-16T18:39:13.229Z,5.75
2018-05-16T18:41:40.695Z,5.50
2018-05-16T18:44:08.185Z,6.70
2018-05-16T18:46:36.423Z,5.40
2018-05-16T18:49:04.666Z,5.40
2018-05-16T18:51:32.148Z,4.60
2018-05-16T18:53:59.651Z,5.20
2018-05-16T18:56:27.927Z,5.22
2018-05-16T18:58:56.172Z,5.25
2018-05-16T19:01:23.658Z,5.22
2018-05-16T19:03:51.138Z,4.60
2018-05-16T19:06:18.622Z,5.47
2018-05-16T19:08:46.106Z,5.50
2018-05-16T19:11:13.558Z,4.97
2018-05-16T19:13:41.037Z,5.60
2018-05-16T19:16:08.503Z,4.53
2018-05-16T19:18:37.494Z,5.40
2018-05-16T19:21:04.961Z,5.18
2018-05-16T19:23:33.223Z,5.43
2018-05-16T19:26:00.703Z,5.35
2018-05-16T19:28:28.200Z,6.35
2018-05-16T19:30:55.667Z,5.20
2018-05-16T19:33:23.135Z,5.90
2018-05-16T19:35:50.642Z,5.40
2018-05-16T19:38:18.124Z,5.80
2018-05-16T19:40:45.615Z,6.00
2018-05-16T19:43:13.117Z,5.60
2018-05-16T19:45:40.604Z,6.90
2018-05-16T19:48:08.967Z,6.10
2018-05-16T19:50:36.485Z,6.05
2018-05-16T19:53:04.752Z,7.47
2018-05-16T19:55:32.214Z,7.97
2018-05-16T19:58:00.463Z,8.00
2018-05-16T20:00:27.937Z,7.05
2018-05-16T20:02:55.395Z,7.97
2018-05-16T20:05:22.870Z,7.80
2018-05-16T20:07:51.127Z,7.75
2018-05-16T20:10:18.593Z,8.98
2018-05-16T20:12:46.065Z,7.32
2018-05-16T20:15:14.314Z,7.75
2018-05-16T20:17:41.816Z,6.50
2018-05-16T20:20:09.302Z,7.03
2018-05-16T20:22:36.769Z,6.32
2018-05-16T20:25:04.249Z,6.75
2018-05-16T20:27:31.727Z,6.15
2018-05-16T20:29:59.954Z,7.25
2018-05-16T20:32:27.443Z,7.00
2018-05-16T20:34:55.714Z,9.00
2018-05-16T20:37:23.201Z,8.98
2018-05-16T20:39:50.674Z,7.47
2018-05-16T20:42:18.210Z,8.43
2018-05-16T20:44:46.521Z,7.22
2018-05-16T20:47:14.863Z,7.82
2018-05-16T20:49:43.147Z,8.77
2018-05-16T20:52:10.623Z,7.12
2018-05-16T20:54:38.134Z,7.47
2018-05-16T20:57:05.647Z,6.47
2018-05-16T20:59:33.147Z,6.90
2018-05-16T21:02:00.659Z,5.75
2018-05-16T21:04:28.167Z,5.53
2018-05-16T21:06:55.633Z,7.03
2018-05-16T21:09:23.867Z,7.20
2018-05-16T21:11:51.399Z,5.05
2018-05-16T21:14:18.870Z,5.55
2018-05-16T21:16:46.341Z,6.62
2018-05-16T21:19:13.822Z,6.25
2018-05-16T21:21:41.298Z,6.10
2018-05-16T21:24:09.536Z,6.15
2018-05-16T21:26:37.005Z,5.12
2018-05-16T21:29:04.497Z,5.32
2018-05-16T21:31:32.795Z,5.10
2018-05-16T21:34:00.262Z,5.62
2018-05-16T21:36:27.742Z,5.05
2018-05-16T21:38:55.247Z,4.85
2018-05-16T21:41:22.956Z,5.40
2018-05-16T21:43:50.473Z,4.75
2018-05-16T21:46:18.699Z,5.87
2018-05-16T21:48:46.177Z,5.57
2018-05-16T21:51:13.655Z,5.93
2018-05-16T21:53:41.903Z,5.68
2018-05-16T21:56:09.390Z,5.62
2018-05-16T21:58:37.629Z,4.72
2018-05-16T22:01:05.088Z,5.30
2018-05-16T22:03:32.622Z,4.57
2018-05-16T22:06:00.106Z,5.45
2018-05-16T22:08:27.594Z,5.30
2018-05-16T22:10:55.863Z,4.40
2018-05-16T22:13:24.114Z,5.72
2018-05-16T22:15:51.577Z,4.82
2018-05-16T22:18:19.058Z,3.87
2018-05-16T22:20:47.305Z,5.70
2018-05-16T22:23:14.777Z,5.60
2018-05-16T22:25:43.030Z,5.93
2018-05-16T22:28:10.574Z,6.15
2018-05-16T22:30:43.665Z,4.32
2018-05-16T22:33:16.832Z,4.55
2018-05-16T22:35:50.149Z,5.93
2018-05-16T22:38:23.261Z,4.00
2018-05-16T22:40:56.340Z,4.80
2018-05-16T22:43:23.820Z,5.00
2018-05-16T22:45:55.266Z,4.97
2018-05-16T22:48:22.747Z,4.30
2018-05-16T22:50:50.246Z,4.97
2018-05-16T22:53:17.717Z,4.22
2018-05-16T22:55:45.197Z,5.47
2018-05-16T22:58:13.455Z,5.22
2018-05-16T23:00:40.962Z,4.32
2018-05-16T23:03:08.458Z,4.78
2018-05-16T23:05:35.973Z,4.75
2018-05-16T23:08:03.453Z,5.65
2018-05-16T23:10:30.937Z,6.07
2018-05-16T23:12:59.095Z,4.28
2018-05-16T23:15:26.560Z,5.18
2018-05-16T23:17:54.057Z,5.22
2018-05-16T23:20:22.309Z,5.78
2018-05-16T23:22:49.780Z,6.68
2018-05-16T23:25:17.262Z,3.95
2018-05-16T23:27:45.494Z,5.22
2018-05-16T23:30:13.001Z,5.03
2018-05-16T23:32:40.502Z,4.28
2018-05-16T23:35:08.721Z,5.32
2018-05-16T23:37:36.964Z,5.32
2018-05-16T23:40:04.434Z,4.97
2018-05-16T23:42:31.916Z,4.65
2018-05-16T23:45:00.151Z,5.40
2018-05-16T23:47:27.614Z,5.15
2018-05-16T23:49:55.091Z,4.43
2018-05-16T23:52:23.326Z,4.95
2018-05-16T23:54:50.817Z,4.87
2018-05-16T23:57:18.339Z,4.68
2018-05-16T23:59:45.822Z,4.53
